createdAt,value
2022-11-04T03:59:07.266Z,996.00
2022-11-04T04:00:07.816Z,996.04
2022-11-04T04:01:07.284Z,996.04
2022-11-04T04:02:07.907Z,996.08
2022-11-04T04:03:07.168Z,996.11
2022-11-04T04:04:07.830Z,996.10
2022-11-04T04:05:07.210Z,996.14
2022-11-04T04:06:07.852Z,996.10
2022-11-04T04:07:07.823Z,996.09
2022-11-04T04:08:07.617Z,996.12
2022-11-04T04:09:07.832Z,996.19
2022-11-04T04:10:07.792Z,996.30
2022-11-04T04:11:07.795Z,996.33
2022-11-04T04:12:07.797Z,996.39
2022-11-04T04:13:07.798Z,996.39
2022-11-04T04:14:07.874Z,996.42
2022-11-04T04:15:07.844Z,996.44
2022-11-04T04:16:07.823Z,996.41
2022-11-04T04:18:08.245Z,996.45
2022-11-04T04:19:07.103Z,996.51
2022-11-04T04:20:07.317Z,996.53
2022-11-04T04:21:06.123Z,996.53
2022-11-04T04:22:07.361Z,996.51
2022-11-04T04:23:06.075Z,996.51
2022-11-04T04:24:06.068Z,996.56
2022-11-04T04:25:08.348Z,996.53
2022-11-04T04:26:07.069Z,996.57
2022-11-04T04:27:07.218Z,996.61
2022-11-04T04:28:08.260Z,996.56
2022-11-04T04:29:07.823Z,996.51
2022-11-04T04:30:08.011Z,996.54
2022-11-04T04:31:07.851Z,996.47
2022-11-04T04:32:07.074Z,996.46
2022-11-04T04:33:07.821Z,996.49
2022-11-04T04:34:08.836Z,996.47
2022-11-04T04:35:07.877Z,996.51
2022-11-04T04:36:07.850Z,996.49
2022-11-04T04:37:07.832Z,996.53
2022-11-04T04:38:07.416Z,996.51
2022-11-04T04:39:07.862Z,996.45
2022-11-04T04:40:07.001Z,996.44
2022-11-04T04:41:08.861Z,996.48
2022-11-04T04:42:05.991Z,996.45
2022-11-04T04:43:08.238Z,996.51
2022-11-04T04:44:07.017Z,996.56
2022-11-04T04:45:06.982Z,996.51
2022-11-04T04:46:07.830Z,996.58
2022-11-04T04:47:07.037Z,996.51
2022-11-04T04:48:07.366Z,996.57
2022-11-04T04:49:07.024Z,996.62
2022-11-04T04:50:07.080Z,996.58
2022-11-04T04:51:05.999Z,996.63
2022-11-04T04:52:07.396Z,996.60
2022-11-04T04:53:06.428Z,996.57
2022-11-04T04:54:06.165Z,996.61
2022-11-04T04:55:05.981Z,996.53
2022-11-04T04:56:05.984Z,996.54
2022-11-04T04:57:06.988Z,996.61
2022-11-04T04:58:07.415Z,996.56
2022-11-04T04:59:06.969Z,996.63
2022-11-04T05:00:07.960Z,996.58
2022-11-04T05:01:08.978Z,996.63
2022-11-04T05:02:07.130Z,996.62
2022-11-04T05:03:07.540Z,996.59
2022-11-04T05:04:07.367Z,996.63
2022-11-04T05:05:08.418Z,996.59
2022-11-04T05:06:06.909Z,996.56
2022-11-04T05:07:06.946Z,996.60
2022-11-04T05:08:07.725Z,996.64
2022-11-04T05:09:07.365Z,996.58
2022-11-04T05:10:08.240Z,996.56
2022-11-04T05:11:06.967Z,996.65
2022-11-04T05:12:07.846Z,996.58
2022-11-04T05:13:07.269Z,996.61
2022-11-04T05:14:07.887Z,996.61
2022-11-04T05:15:08.101Z,996.63
2022-11-04T05:16:07.907Z,996.64
2022-11-04T05:17:06.926Z,996.64
2022-11-04T05:18:07.202Z,996.72
2022-11-04T05:19:06.918Z,996.72
2022-11-04T05:20:06.903Z,996.77
2022-11-04T05:21:07.868Z,996.73
2022-11-04T05:22:06.875Z,996.79
2022-11-04T05:23:06.854Z,996.80
2022-11-04T05:24:06.910Z,996.83
2022-11-04T05:25:07.937Z,996.88
2022-11-04T05:26:06.854Z,996.86
2022-11-04T05:27:08.363Z,996.82
2022-11-04T05:28:07.158Z,996.87
2022-11-04T05:29:07.446Z,996.89
2022-11-04T05:30:07.517Z,996.96
2022-11-04T05:31:07.415Z,996.97
2022-11-04T05:32:07.392Z,996.98
2022-11-04T05:33:07.277Z,997.00
2022-11-04T05:34:06.998Z,997.00
2022-11-04T05:35:07.509Z,997.02
2022-11-04T05:36:05.827Z,997.04
2022-11-04T05:37:07.447Z,997.07
2022-11-04T05:38:06.805Z,997.06
2022-11-04T05:39:07.410Z,997.09
2022-11-04T05:40:07.509Z,997.13
2022-11-04T05:41:07.393Z,997.14
2022-11-04T05:42:07.389Z,997.12
2022-11-04T05:43:07.767Z,997.16
2022-11-04T05:44:07.369Z,997.18
2022-11-04T05:45:07.411Z,997.21
2022-11-04T05:46:07.549Z,997.19
2022-11-04T05:47:07.405Z,997.25
2022-11-04T05:48:06.754Z,997.27
2022-11-04T05:49:07.418Z,997.27
2022-11-04T05:50:07.629Z,997.27
2022-11-04T05:51:07.420Z,997.29
2022-11-04T05:52:07.397Z,997.32
2022-11-04T05:53:07.025Z,997.28
2022-11-04T05:54:12.423Z,997.32
2022-11-04T05:55:06.902Z,997.39
2022-11-04T05:56:07.502Z,997.34
2022-11-04T05:57:07.384Z,997.33
2022-11-04T05:58:07.769Z,997.34
2022-11-04T05:59:05.858Z,997.33
2022-11-04T06:00:08.485Z,997.39
2022-11-04T06:01:06.758Z,997.41
2022-11-04T06:02:07.776Z,997.42
2022-11-04T06:03:10.665Z,997.44
2022-11-04T06:04:07.405Z,997.47
2022-11-04T06:05:07.388Z,997.45
2022-11-04T06:06:07.400Z,997.50
2022-11-04T06:07:07.448Z,997.48
2022-11-04T06:08:07.760Z,997.49
2022-11-04T06:09:05.732Z,997.49
2022-11-04T06:10:07.416Z,997.52
2022-11-04T06:11:07.492Z,997.48
2022-11-04T06:12:07.436Z,997.45
2022-11-04T06:13:05.668Z,997.40
2022-11-04T06:14:07.433Z,997.45
2022-11-04T06:15:07.436Z,997.41
2022-11-04T06:16:05.703Z,997.42
2022-11-04T06:17:05.735Z,997.44
2022-11-04T06:18:05.835Z,997.47
2022-11-04T06:19:08.663Z,997.47
2022-11-04T06:20:05.688Z,997.51
2022-11-04T06:21:06.430Z,997.47
2022-11-04T06:22:05.739Z,997.51
2022-11-04T06:23:06.999Z,997.53
2022-11-04T06:24:05.633Z,997.53
2022-11-04T06:25:05.829Z,997.53
2022-11-04T06:26:05.683Z,997.57
2022-11-04T06:27:06.922Z,997.64
2022-11-04T06:28:08.372Z,997.62
2022-11-04T06:29:07.164Z,997.68
2022-11-04T06:30:13.461Z,997.72
2022-11-04T06:31:10.979Z,997.76
2022-11-04T06:32:06.657Z,997.78
2022-11-04T06:33:05.670Z,997.77
2022-11-04T06:34:06.943Z,997.80
2022-11-04T06:35:06.661Z,997.82
2022-11-04T06:36:06.663Z,997.84
2022-11-04T06:37:06.599Z,997.84
2022-11-04T06:38:06.985Z,997.85
2022-11-04T06:39:07.458Z,997.91
2022-11-04T06:40:08.491Z,997.95
2022-11-04T06:41:06.882Z,997.93
2022-11-04T06:42:09.466Z,998.00
2022-11-04T06:43:05.895Z,997.96
2022-11-04T06:44:07.580Z,998.00
2022-11-04T06:45:07.555Z,998.05
2022-11-04T06:46:06.664Z,998.05
2022-11-04T06:47:07.076Z,998.15
2022-11-04T06:48:06.625Z,998.13
2022-11-04T06:49:06.980Z,998.16
2022-11-04T06:50:06.978Z,998.18
2022-11-04T06:51:06.657Z,998.12
2022-11-04T06:52:05.559Z,998.18
2022-11-04T06:53:05.694Z,998.17
2022-11-04T06:54:07.191Z,998.13
2022-11-04T06:55:07.797Z,998.14
2022-11-04T06:56:05.525Z,998.12
2022-11-04T06:57:07.949Z,998.17
2022-11-04T06:58:05.553Z,998.20
2022-11-04T06:59:06.945Z,998.24
2022-11-04T07:00:06.642Z,998.25
2022-11-04T07:01:12.624Z,998.28
2022-11-04T07:02:05.643Z,998.33
2022-11-04T07:03:11.127Z,998.35
2022-11-04T07:04:05.556Z,998.27
2022-11-04T07:05:07.692Z,998.34
2022-11-04T07:06:07.448Z,998.36
2022-11-04T07:07:07.540Z,998.36
2022-11-04T07:09:08.482Z,998.42
2022-11-04T07:10:05.635Z,998.45
2022-11-04T07:11:12.482Z,998.46
2022-11-04T07:12:05.502Z,998.51
2022-11-04T07:13:05.544Z,998.45
2022-11-04T07:14:06.510Z,998.41
2022-11-04T07:15:05.612Z,998.43
2022-11-04T07:16:06.976Z,998.40
2022-11-04T07:17:14.904Z,998.42
2022-11-04T07:19:54.174Z,998.53
2022-11-04T07:21:10.128Z,998.55
2022-11-04T07:21:59.856Z,998.56
2022-11-04T07:22:52.773Z,998.59
2022-11-04T07:23:52.788Z,998.61
2022-11-04T07:24:52.952Z,998.64
2022-11-04T07:25:54.726Z,998.70
2022-11-04T07:26:54.158Z,998.72
2022-11-04T07:27:55.473Z,998.78
2022-11-04T07:28:54.711Z,998.82
2022-11-04T07:29:54.687Z,998.78
2022-11-04T07:30:52.741Z,998.73
2022-11-04T07:31:52.898Z,998.72
2022-11-04T07:33:54.686Z,998.69
2022-11-04T07:34:53.178Z,998.67
2022-11-04T07:35:56.995Z,998.71
2022-11-04T07:36:54.466Z,998.75
2022-11-04T07:37:52.788Z,998.80
2022-11-04T07:38:54.700Z,998.85
2022-11-04T07:39:54.694Z,998.90
2022-11-04T07:40:52.859Z,998.89
2022-11-04T07:41:59.313Z,998.93
2022-11-04T07:42:57.045Z,998.92
2022-11-04T07:43:52.783Z,998.88
2022-11-04T07:44:54.124Z,998.88
2022-11-04T07:45:52.697Z,998.85
2022-11-04T07:46:53.859Z,998.84
2022-11-04T07:47:53.730Z,998.87
2022-11-04T07:48:56.416Z,998.88
2022-11-04T07:49:55.462Z,998.90
2022-11-04T07:50:55.141Z,998.87
2022-11-04T07:51:54.579Z,998.89
2022-11-04T07:52:56.001Z,998.90
2022-11-04T07:53:53.475Z,998.89
2022-11-04T07:54:59.143Z,998.91
2022-11-04T07:55:55.238Z,998.91
2022-11-04T07:56:55.374Z,998.95
2022-11-04T07:57:54.199Z,998.93
2022-11-04T07:58:55.010Z,998.92
2022-11-04T07:59:54.214Z,998.93
2022-11-04T08:00:55.325Z,998.89
2022-11-04T08:01:52.924Z,998.88
2022-11-04T08:02:54.393Z,998.92
2022-11-04T08:03:52.620Z,998.91
2022-11-04T08:04:54.251Z,998.90
2022-11-04T08:05:58.549Z,998.97
2022-11-04T08:06:54.290Z,998.93
2022-11-04T08:07:54.305Z,998.95
2022-11-04T08:09:52.654Z,998.98
2022-11-04T08:10:53.300Z,999.01
2022-11-04T08:11:52.600Z,999.05
2022-11-04T08:12:54.215Z,999.05
2022-11-04T08:13:52.618Z,999.07
2022-11-04T08:14:53.969Z,999.09
2022-11-04T08:15:52.624Z,999.11
2022-11-04T08:16:52.900Z,999.11
2022-11-04T08:17:52.595Z,999.13
2022-11-04T08:18:56.165Z,999.12
2022-11-04T08:19:52.574Z,999.13
2022-11-04T08:20:53.795Z,999.12
2022-11-04T08:21:52.569Z,999.17
2022-11-04T08:22:52.610Z,999.17
2022-11-04T08:23:55.089Z,999.22
2022-11-04T08:24:52.560Z,999.16
2022-11-04T08:25:54.333Z,999.25
2022-11-04T08:26:53.269Z,999.20
2022-11-04T08:27:55.579Z,999.19
2022-11-04T08:28:52.575Z,999.23
2022-11-04T08:30:17.914Z,999.25
2022-11-04T08:30:56.183Z,999.26
2022-11-04T08:32:27.137Z,999.24
2022-11-04T08:32:52.853Z,999.28
2022-11-04T08:33:55.671Z,999.30
2022-11-04T08:34:53.297Z,999.26
2022-11-04T08:35:59.394Z,999.25
2022-11-04T08:36:52.825Z,999.28
2022-11-04T08:37:52.563Z,999.30
2022-11-04T08:38:57.287Z,999.24
2022-11-04T08:39:54.383Z,999.21
2022-11-04T08:40:59.463Z,999.26
2022-11-04T08:41:53.422Z,999.28
2022-11-04T08:42:52.702Z,999.25
2022-11-04T08:43:54.589Z,999.26
2022-11-04T08:44:52.754Z,999.26
2022-11-04T08:45:52.679Z,999.26
2022-11-04T08:46:52.602Z,999.32
2022-11-04T08:47:59.042Z,999.28
2022-11-04T08:48:54.735Z,999.33
2022-11-04T08:50:01.287Z,999.35
2022-11-04T08:50:52.642Z,999.42
2022-11-04T08:51:52.534Z,999.45
2022-11-04T08:52:52.605Z,999.47
2022-11-04T08:53:52.723Z,999.51
2022-11-04T08:54:57.278Z,999.55
2022-11-04T08:55:55.408Z,999.56
2022-11-04T08:56:52.610Z,999.59
2022-11-04T08:57:52.498Z,999.58
2022-11-04T08:58:56.450Z,999.55
2022-11-04T08:59:55.137Z,999.59
2022-11-04T09:00:59.348Z,999.59
2022-11-04T09:01:54.170Z,999.62
2022-11-04T09:02:52.478Z,999.59
2022-11-04T09:03:52.857Z,999.61
2022-11-04T09:04:53.988Z,999.61
2022-11-04T09:05:52.691Z,999.64
2022-11-04T09:07:05.192Z,999.62
2022-11-04T09:07:52.895Z,999.64
2022-11-04T09:08:52.461Z,999.63
2022-11-04T09:09:53.382Z,999.65
2022-11-04T09:10:55.294Z,999.69
2022-11-04T09:11:55.331Z,999.69
2022-11-04T09:12:54.427Z,999.64
2022-11-04T09:13:54.260Z,999.66
2022-11-04T09:14:54.258Z,999.64
2022-11-04T09:15:54.700Z,999.58
2022-11-04T09:16:54.541Z,999.54
2022-11-04T09:17:52.533Z,999.52
2022-11-04T09:18:54.280Z,999.49
2022-11-04T09:19:54.325Z,999.46
2022-11-04T09:21:55.121Z,999.41
2022-11-04T09:22:52.496Z,999.41
2022-11-04T09:23:54.347Z,999.43
2022-11-04T09:24:54.334Z,999.46
2022-11-04T09:26:54.276Z,999.48
2022-11-04T09:27:54.269Z,999.54
2022-11-04T09:28:54.359Z,999.58
2022-11-04T09:29:54.315Z,999.55
2022-11-04T09:30:53.943Z,999.61
2022-11-04T09:31:56.403Z,999.66
2022-11-04T09:32:53.007Z,999.70
2022-11-04T09:34:54.379Z,999.71
2022-11-04T09:35:54.337Z,999.69
2022-11-04T09:36:52.404Z,999.69
2022-11-04T09:37:52.396Z,999.72
2022-11-04T09:38:52.409Z,999.67
2022-11-04T09:39:54.145Z,999.68
2022-11-04T09:40:53.866Z,999.69
2022-11-04T09:41:52.467Z,999.67
2022-11-04T09:42:52.393Z,999.65
2022-11-04T09:43:52.402Z,999.63
2022-11-04T09:45:19.946Z,999.65
2022-11-04T09:45:52.388Z,999.60
2022-11-04T09:47:52.454Z,999.63
2022-11-04T09:48:53.673Z,999.65
2022-11-04T09:49:54.367Z,999.58
2022-11-04T09:50:52.563Z,999.60
2022-11-04T09:51:55.819Z,999.62
2022-11-04T09:52:52.419Z,999.61
2022-11-04T09:53:52.398Z,999.61
2022-11-04T09:54:54.316Z,999.59
2022-11-04T09:55:52.627Z,999.61
2022-11-04T09:56:54.404Z,999.65
2022-11-04T09:58:53.292Z,999.69
2022-11-04T09:59:54.296Z,999.71
2022-11-04T10:00:54.360Z,999.74
2022-11-04T10:02:00.416Z,999.77
2022-11-04T10:13:20.976Z,999.87
2022-11-04T10:14:20.758Z,999.90
2022-11-04T10:15:20.777Z,999.86
2022-11-04T10:16:20.389Z,999.84
2022-11-04T10:17:20.374Z,999.81
2022-11-04T10:18:21.252Z,999.79
2022-11-04T10:19:20.770Z,999.80
2022-11-04T10:20:19.235Z,999.76
2022-11-04T10:21:20.782Z,999.76
2022-11-04T10:22:20.785Z,999.80
2022-11-04T10:23:23.209Z,999.78
2022-11-04T10:24:23.902Z,999.79
2022-11-04T10:25:19.265Z,999.84
2022-11-04T10:26:20.283Z,999.85
2022-11-04T10:27:20.026Z,999.89
2022-11-04T10:28:24.060Z,999.95
2022-11-04T10:29:19.461Z,999.96
2022-11-04T10:30:23.104Z,999.98
2022-11-04T10:31:20.191Z,999.99
2022-11-04T10:32:22.263Z,999.99
2022-11-04T10:33:20.956Z,999.97
2022-11-04T10:34:19.532Z,1000.04
2022-11-04T10:35:19.164Z,1000.04
2022-11-04T10:36:26.485Z,1000.08
2022-11-04T10:37:25.175Z,1000.09
2022-11-04T10:38:19.157Z,1000.08
2022-11-04T10:39:25.834Z,1000.11
2022-11-04T10:40:19.388Z,1000.12
2022-11-04T10:41:22.002Z,1000.12
2022-11-04T10:42:19.150Z,1000.11
2022-11-04T10:43:19.456Z,1000.15
2022-11-04T10:44:19.287Z,1000.17
2022-11-04T10:45:19.814Z,1000.20
2022-11-04T10:46:27.940Z,1000.16
2022-11-04T10:47:19.233Z,1000.22
2022-11-04T10:48:19.206Z,1000.21
2022-11-04T10:49:19.246Z,1000.23
2022-11-04T10:50:34.646Z,1000.22
2022-11-04T10:51:20.858Z,1000.20
2022-11-04T10:52:22.993Z,1000.24
2022-11-04T10:53:19.248Z,1000.23
2022-11-04T10:54:20.883Z,1000.23
2022-11-04T10:55:31.527Z,1000.23
2022-11-04T10:56:19.278Z,1000.24
2022-11-04T10:57:21.518Z,1000.29
2022-11-04T10:58:19.249Z,1000.29
2022-11-04T10:59:20.639Z,1000.32
2022-11-04T11:00:19.235Z,1000.31
2022-11-04T11:01:19.389Z,1000.31
2022-11-04T11:02:20.945Z,1000.30
2022-11-04T11:03:19.138Z,1000.27
2022-11-04T11:04:19.200Z,1000.32
2022-11-04T11:05:19.253Z,1000.31
2022-11-04T11:06:20.835Z,1000.34
2022-11-04T11:07:20.811Z,1000.25
2022-11-04T11:08:20.333Z,1000.31
2022-11-04T11:09:19.211Z,1000.24
2022-11-04T11:10:25.645Z,1000.28
2022-11-04T11:11:20.229Z,1000.28
2022-11-04T11:12:49.507Z,1000.29
2022-11-04T11:13:19.163Z,1000.33
2022-11-04T11:14:20.820Z,1000.32
2022-11-04T11:15:22.956Z,1000.32
2022-11-04T11:16:22.024Z,1000.36
2022-11-04T11:17:19.172Z,1000.35
2022-11-04T11:18:19.139Z,1000.31
2022-11-04T11:19:19.287Z,1000.32
2022-11-04T11:20:20.817Z,1000.35
2022-11-04T11:21:23.441Z,1000.33
2022-11-04T11:22:20.839Z,1000.31
2022-11-04T11:23:20.490Z,1000.32
2022-11-04T11:24:19.448Z,1000.33
2022-11-04T11:25:19.155Z,1000.30
2022-11-04T11:26:20.837Z,1000.29
2022-11-04T11:27:19.254Z,1000.34
2022-11-04T11:28:19.756Z,1000.35
2022-11-04T11:29:19.131Z,1000.36
2022-11-04T11:30:20.822Z,1000.37
2022-11-04T11:31:20.916Z,1000.42
2022-11-04T11:32:21.085Z,1000.41
2022-11-04T11:33:20.838Z,1000.41
2022-11-04T11:34:20.871Z,1000.38
2022-11-04T11:35:20.868Z,1000.39
2022-11-04T11:36:19.349Z,1000.40
2022-11-04T11:37:20.841Z,1000.38
2022-11-04T11:38:20.833Z,1000.37
2022-11-04T11:39:20.872Z,1000.41
2022-11-04T11:40:20.827Z,1000.42
2022-11-04T11:41:25.544Z,1000.45
2022-11-04T11:42:20.861Z,1000.46
2022-11-04T11:43:20.839Z,1000.50
2022-11-04T11:44:21.839Z,1000.51
2022-11-04T11:45:20.840Z,1000.53
2022-11-04T11:46:21.861Z,1000.53
2022-11-04T11:47:20.852Z,1000.52
2022-11-04T11:48:22.838Z,1000.53
2022-11-04T11:49:19.143Z,1000.52
2022-11-04T11:50:19.172Z,1000.56
2022-11-04T11:51:21.977Z,1000.55
2022-11-04T11:52:20.846Z,1000.50
2022-11-04T11:53:19.189Z,1000.52
2022-11-04T11:54:19.248Z,1000.50
2022-11-04T11:55:20.907Z,1000.47
2022-11-04T11:56:20.868Z,1000.46
2022-11-04T11:57:25.041Z,1000.50
2022-11-04T12:01:24.258Z,1000.46
2022-11-04T12:02:21.984Z,1000.49
2022-11-04T12:03:25.300Z,1000.48
2022-11-04T12:06:20.536Z,1000.52
2022-11-04T12:09:23.386Z,1000.56
2022-11-04T12:10:44.684Z,1000.53
2022-11-04T12:11:19.161Z,1000.56
2022-11-04T12:12:20.893Z,1000.58
2022-11-04T12:13:24.668Z,1000.62
2022-11-04T12:14:21.118Z,1000.63
2022-11-04T12:15:23.049Z,1000.60
2022-11-04T12:16:22.049Z,1000.59
2022-11-04T12:17:33.332Z,1000.61
2022-11-04T12:18:26.566Z,1000.57
2022-11-04T12:19:19.478Z,1000.57
2022-11-04T12:20:19.406Z,1000.58
2022-11-04T12:21:25.284Z,1000.58
2022-11-04T12:22:19.190Z,1000.59
2022-11-04T12:23:19.470Z,1000.56
2022-11-04T12:24:19.331Z,1000.54
2022-11-04T12:25:20.887Z,1000.53
2022-11-04T12:26:26.887Z,1000.54
2022-11-04T12:27:20.885Z,1000.53
2022-11-04T12:28:19.209Z,1000.51
2022-11-04T12:29:19.306Z,1000.52
2022-11-04T12:30:22.540Z,1000.51
2022-11-04T12:31:19.285Z,1000.48
2022-11-04T12:32:20.898Z,1000.49
2022-11-04T12:33:21.175Z,1000.49
2022-11-04T12:34:19.329Z,1000.50
2022-11-04T12:35:19.499Z,1000.47
2022-11-04T12:36:19.292Z,1000.47
2022-11-04T12:37:20.230Z,1000.50
2022-11-04T12:38:19.220Z,1000.46
2022-11-04T12:39:20.968Z,1000.45
2022-11-04T12:40:19.340Z,1000.46
2022-11-04T12:42:23.056Z,1000.46
2022-11-04T12:43:20.935Z,1000.44
2022-11-04T12:44:19.318Z,1000.43
2022-11-04T12:45:20.902Z,1000.44
2022-11-04T12:46:19.254Z,1000.43
2022-11-04T12:47:21.052Z,1000.42
2022-11-04T12:48:19.307Z,1000.45
2022-11-04T12:49:21.193Z,1000.43
2022-11-04T12:50:19.303Z,1000.44
2022-11-04T12:51:20.909Z,1000.47
2022-11-04T12:52:20.939Z,1000.47
2022-11-04T12:53:19.306Z,1000.51
2022-11-04T12:54:20.385Z,1000.52
2022-11-04T12:55:19.291Z,1000.52
2022-11-04T12:56:21.139Z,1000.52
2022-11-04T12:57:21.426Z,1000.53
2022-11-04T12:58:20.371Z,1000.56
2022-11-04T12:59:20.935Z,1000.58
2022-11-04T13:00:19.323Z,1000.57
2022-11-04T13:01:21.117Z,1000.57
2022-11-04T13:02:22.203Z,1000.61
2022-11-04T13:03:19.661Z,1000.61
2022-11-04T13:04:19.395Z,1000.60
2022-11-04T13:05:21.029Z,1000.60
2022-11-04T13:06:21.951Z,1000.59
2022-11-04T13:07:20.851Z,1000.61
2022-11-04T13:08:22.378Z,1000.61
2022-11-04T13:09:20.927Z,1000.62
2022-11-04T13:10:20.381Z,1000.62
2022-11-04T13:11:20.999Z,1000.69
2022-11-04T13:12:21.058Z,1000.66
2022-11-04T13:13:21.924Z,1000.74
2022-11-04T13:14:20.942Z,1000.74
2022-11-04T13:15:20.961Z,1000.76
2022-11-04T13:16:21.094Z,1000.73
2022-11-04T13:17:20.969Z,1000.77
2022-11-04T13:18:21.016Z,1000.78
2022-11-04T13:19:19.373Z,1000.79
2022-11-04T13:20:21.062Z,1000.84
2022-11-04T13:21:21.992Z,1000.81
2022-11-04T13:22:20.935Z,1000.85
2022-11-04T13:23:21.187Z,1000.84
2022-11-04T13:24:21.093Z,1000.90
2022-11-04T13:25:20.990Z,1000.95
2022-11-04T13:26:21.029Z,1000.97
2022-11-04T13:27:21.028Z,1000.93
2022-11-04T13:28:20.942Z,1000.97
2022-11-04T13:29:20.967Z,1000.97
2022-11-04T13:30:20.942Z,1000.97
2022-11-04T13:31:20.948Z,1000.98
2022-11-04T13:32:21.177Z,1001.02
2022-11-04T13:33:20.973Z,1001.06
2022-11-04T13:34:23.335Z,1001.06
2022-11-04T13:35:20.952Z,1001.02
2022-11-04T13:36:20.968Z,1001.06
2022-11-04T13:37:19.407Z,1001.08
2022-11-04T13:38:19.427Z,1001.06
2022-11-04T13:39:21.025Z,1001.07
2022-11-04T13:40:19.396Z,1001.08
2022-11-04T13:41:21.864Z,1001.14
2022-11-04T13:42:21.120Z,1001.12
2022-11-04T13:43:27.126Z,1001.13
2022-11-04T13:44:21.029Z,1001.13
2022-11-04T13:45:21.000Z,1001.15
2022-11-04T13:46:20.958Z,1001.17
2022-11-04T13:47:22.405Z,1001.19
2022-11-04T13:48:26.961Z,1001.20
2022-11-04T13:49:21.013Z,1001.21
2022-11-04T13:50:20.986Z,1001.25
2022-11-04T13:51:22.004Z,1001.23
2022-11-04T13:52:19.394Z,1001.23
2022-11-04T13:53:21.251Z,1001.26
2022-11-04T13:54:21.052Z,1001.26
2022-11-04T13:55:19.506Z,1001.27
2022-11-04T13:56:32.789Z,1001.31
2022-11-04T13:57:26.970Z,1001.35
2022-11-04T13:58:19.438Z,1001.40
2022-11-04T13:59:21.091Z,1001.37
2022-11-04T14:00:20.993Z,1001.41
2022-11-04T14:01:21.079Z,1001.39
2022-11-04T14:02:26.097Z,1001.42
2022-11-04T14:03:21.069Z,1001.43
2022-11-04T14:04:19.385Z,1001.43
2022-11-04T14:05:19.412Z,1001.41
2022-11-04T14:06:19.422Z,1001.40
2022-11-04T14:07:21.011Z,1001.41
2022-11-04T14:08:19.437Z,1001.40
2022-11-04T14:09:20.998Z,1001.40
2022-11-04T14:10:19.378Z,1001.42
2022-11-04T14:11:19.506Z,1001.42
2022-11-04T14:12:19.412Z,1001.42
2022-11-04T14:13:21.368Z,1001.43
2022-11-04T14:15:22.998Z,1001.50
2022-11-04T14:16:19.371Z,1001.46
2022-11-04T14:17:21.006Z,1001.48
2022-11-04T14:18:19.388Z,1001.50
2022-11-04T14:19:21.000Z,1001.51
2022-11-04T14:20:21.043Z,1001.49
2022-11-04T14:21:19.379Z,1001.53
2022-11-04T14:22:19.362Z,1001.54
2022-11-04T14:23:21.011Z,1001.58
2022-11-04T14:24:21.007Z,1001.59
2022-11-04T14:25:21.050Z,1001.56
2022-11-04T14:26:21.071Z,1001.58
2022-11-04T14:27:20.501Z,1001.61
2022-11-04T14:28:21.143Z,1001.63
2022-11-04T14:29:21.020Z,1001.64
2022-11-04T14:30:19.351Z,1001.67
2022-11-04T14:31:21.016Z,1001.72
2022-11-04T14:32:21.017Z,1001.69
2022-11-04T14:33:22.026Z,1001.75
2022-11-04T14:34:21.026Z,1001.75
2022-11-04T14:35:21.024Z,1001.80
2022-11-04T14:36:21.016Z,1001.83
2022-11-04T14:37:19.336Z,1001.85
2022-11-04T14:38:21.015Z,1001.89
2022-11-04T14:39:19.350Z,1001.94
2022-11-04T14:40:21.058Z,1001.93
2022-11-04T14:41:21.052Z,1001.96
2022-11-04T14:42:21.052Z,1001.93
2022-11-04T14:43:21.059Z,1001.98
2022-11-04T14:44:20.415Z,1001.98
2022-11-04T14:45:21.012Z,1002.00
2022-11-04T14:46:21.111Z,1002.06
2022-11-04T14:47:21.020Z,1002.03
2022-11-04T14:48:21.081Z,1002.01
2022-11-04T14:49:21.083Z,1002.03
2022-11-04T14:50:21.021Z,1002.03
2022-11-04T14:51:21.091Z,1002.03
2022-11-04T14:52:21.019Z,1002.05
2022-11-04T14:53:21.125Z,1002.06
2022-11-04T14:54:21.055Z,1002.06
2022-11-04T14:55:21.172Z,1002.07
2022-11-04T14:56:23.776Z,1002.12
2022-11-04T14:57:19.349Z,1002.14
2022-11-04T14:58:19.315Z,1002.11
2022-11-04T14:59:19.308Z,1002.12
2022-11-04T15:00:19.314Z,1002.15
2022-11-04T15:01:21.198Z,1002.15
2022-11-04T15:02:19.485Z,1002.15
2022-11-04T15:04:19.332Z,1002.14
2022-11-04T15:05:21.108Z,1002.18
2022-11-04T15:06:19.274Z,1002.15
2022-11-04T15:07:19.269Z,1002.19
2022-11-04T15:08:19.299Z,1002.23
2022-11-04T15:09:19.437Z,1002.29
2022-11-04T15:10:21.077Z,1002.26
2022-11-04T15:11:20.063Z,1002.29
2022-11-04T15:12:21.218Z,1002.30
2022-11-04T15:13:21.186Z,1002.34
2022-11-04T15:14:21.101Z,1002.33
2022-11-04T15:15:21.188Z,1002.37
2022-11-04T15:16:20.566Z,1002.38
2022-11-04T15:17:20.252Z,1002.39
2022-11-04T15:18:27.113Z,1002.45
2022-11-04T15:19:21.095Z,1002.43
2022-11-04T15:20:20.550Z,1002.42
2022-11-04T15:21:21.074Z,1002.46
2022-11-04T15:22:21.070Z,1002.49
2022-11-04T15:23:21.055Z,1002.47
2022-11-04T15:24:21.306Z,1002.50
2022-11-04T15:25:21.110Z,1002.56
2022-11-04T15:26:25.083Z,1002.59
2022-11-04T15:27:21.283Z,1002.59
2022-11-04T15:28:20.215Z,1002.63
2022-11-04T15:29:21.136Z,1002.64
2022-11-04T15:30:21.056Z,1002.68
2022-11-04T15:31:21.081Z,1002.67
2022-11-04T15:32:21.051Z,1002.69
2022-11-04T15:33:20.213Z,1002.69
2022-11-04T15:34:20.568Z,1002.68
2022-11-04T15:35:21.189Z,1002.72
2022-11-04T15:36:20.572Z,1002.68
2022-11-04T15:37:21.057Z,1002.72
2022-11-04T15:38:20.447Z,1002.67
2022-11-04T15:39:20.189Z,1002.70
2022-11-04T15:40:21.064Z,1002.69
2022-11-04T15:41:20.601Z,1002.75
2022-11-04T15:42:20.581Z,1002.72
2022-11-04T15:43:20.200Z,1002.71
2022-11-04T15:44:20.196Z,1002.75
2022-11-04T15:45:19.184Z,1002.73
2022-11-04T15:46:21.164Z,1002.74
2022-11-04T15:47:21.608Z,1002.77
2022-11-04T15:48:20.175Z,1002.78
2022-11-04T15:49:20.170Z,1002.77
2022-11-04T15:50:20.191Z,1002.79
2022-11-04T15:51:21.086Z,1002.82
2022-11-04T15:52:20.152Z,1002.81
2022-11-04T15:53:21.160Z,1002.82
2022-11-04T15:54:21.236Z,1002.81
2022-11-04T15:55:19.164Z,1002.81
2022-11-04T15:56:21.079Z,1002.80
2022-11-04T15:57:21.228Z,1002.81
2022-11-04T15:58:21.088Z,1002.82
2022-11-04T15:59:20.156Z,1002.81
2022-11-04T16:00:20.196Z,1002.82
2022-11-04T16:01:20.317Z,1002.82
2022-11-04T16:12:29.365Z,1003.04
2022-11-04T16:13:29.830Z,1003.08
2022-11-04T16:14:29.898Z,1003.09
2022-11-04T16:15:29.338Z,1003.12
2022-11-04T16:16:29.831Z,1003.12
2022-11-04T16:17:29.837Z,1003.12
2022-11-04T16:18:29.874Z,1003.15
2022-11-04T16:19:29.287Z,1003.16
2022-11-04T16:20:29.846Z,1003.10
2022-11-04T16:21:29.280Z,1003.15
2022-11-04T16:22:29.851Z,1003.13
2022-11-04T16:23:29.912Z,1003.19
2022-11-04T16:24:29.473Z,1003.16
2022-11-04T16:25:29.251Z,1003.17
2022-11-04T16:26:29.429Z,1003.19
2022-11-04T16:27:28.263Z,1003.22
2022-11-04T16:28:28.265Z,1003.21
2022-11-04T16:29:28.292Z,1003.25
2022-11-04T16:30:28.325Z,1003.22
2022-11-04T16:31:29.370Z,1003.25
2022-11-04T16:32:29.354Z,1003.22
2022-11-04T16:33:30.856Z,1003.20
2022-11-04T16:34:28.226Z,1003.21
2022-11-04T16:35:28.222Z,1003.19
2022-11-04T16:36:33.999Z,1003.20
2022-11-04T16:37:29.528Z,1003.25
2022-11-04T16:38:29.222Z,1003.25
2022-11-04T16:39:29.210Z,1003.25
2022-11-04T16:40:28.233Z,1003.31
2022-11-04T16:41:29.855Z,1003.31
2022-11-04T16:42:29.402Z,1003.32
2022-11-04T16:43:29.222Z,1003.34
2022-11-04T16:44:29.279Z,1003.41
2022-11-04T16:45:29.191Z,1003.40
2022-11-04T16:46:29.189Z,1003.44
2022-11-04T16:47:29.867Z,1003.47
2022-11-04T16:48:29.187Z,1003.46
2022-11-04T16:49:29.893Z,1003.48
2022-11-04T16:50:29.375Z,1003.48
2022-11-04T16:51:29.854Z,1003.50
2022-11-04T16:52:29.187Z,1003.53
2022-11-04T16:53:29.155Z,1003.55
2022-11-04T16:54:29.860Z,1003.58
2022-11-04T16:55:30.034Z,1003.59
2022-11-04T16:56:29.907Z,1003.60
2022-11-04T16:57:29.891Z,1003.62